»·PEaware :: N653TB KAPA-KASE

N653TB :: KAPA-KASE

FLIGHT INFORMATION

Flight Status: Arrived
Operator: Privately registered:
United States
More flights under this callsign
Pilot: Sergei F. (8485)
Aircraft: SOCATA TBM-900
(TBM9)
More flights by this aircraft type
Origin: KAPA Centennial
United States
Destination: KASE Aspen-Pitkin Co/Sardy
United States
More flights between these airports :: More routes between these airports
Route: ROCKI5 DBL
File this flight plan on PilotEdge
Remarks:
Altitude:
(Current/Filed)
20,000ft
Speed:
(Current/Filed)
300kts
Departed: 03-Nov-20 09:15 PM
Arrived: 03-Nov-20 09:51 PM
Distance/Time
Traveled:
96nm/0:35
Distance/Time
To Go:
Arrived

Flight Plot

Page will automatically refresh every two minutes.

Flight plan parsing failed; only flown route is shown


Map Options




Map Legend


Flown Route
Filed Route
Departure Airport
Arrival Airport
Navaid (VOR, NDB)
Fix

Horizontal Profiles

Position Reports

Time Latitude Longitude Heading Altitude Ground
Speed
03-Nov-20 20:47 39.570931 -104.848087 0 5887ft 0kts
03-Nov-20 20:48 39.570932 -104.848087 180 5887ft 0kts
03-Nov-20 20:49 39.570932 -104.848087 180 5887ft 0kts
03-Nov-20 20:50 39.570932 -104.848087 180 5887ft 0kts
03-Nov-20 20:51 39.570932 -104.848087 180 5887ft 0kts
03-Nov-20 20:52 39.570932 -104.848087 180 5887ft 0kts
03-Nov-20 20:53 39.570932 -104.848087 180 5887ft 0kts
03-Nov-20 20:54 39.570932 -104.848087 180 5887ft 0kts
03-Nov-20 20:55 39.570932 -104.848087 180 5887ft 0kts
03-Nov-20 20:56 39.570932 -104.848087 180 5887ft 0kts
03-Nov-20 20:57 39.570932 -104.848087 180 5887ft 0kts
03-Nov-20 20:58 39.570890 -104.848087 179 5887ft 0kts
03-Nov-20 20:59 39.570890 -104.848087 179 5887ft 0kts
03-Nov-20 21:00 39.570890 -104.848087 179 5887ft 0kts
03-Nov-20 21:01 39.570890 -104.848087 179 5887ft 0kts
03-Nov-20 21:02 39.570890 -104.848087 179 5887ft 0kts
03-Nov-20 21:03 39.570890 -104.848087 179 5887ft 0kts
03-Nov-20 21:04 39.570890 -104.848087 179 5887ft 0kts
03-Nov-20 21:05 39.570890 -104.848087 179 5887ft 0kts
03-Nov-20 21:06 39.570759 -104.848247 251 5887ft 1kts
03-Nov-20 21:07 39.571322 -104.849279 287 5887ft 5kts
03-Nov-20 21:08 39.573782 -104.849594 358 5887ft 12kts
03-Nov-20 21:09 39.577321 -104.849753 358 5887ft 12kts
03-Nov-20 21:10 39.580914 -104.849915 357 5887ft 12kts
03-Nov-20 21:11 39.584112 -104.850121 303 5887ft 4kts
03-Nov-20 21:12 39.584119 -104.850258 263 5887ft 0kts
03-Nov-20 21:13 39.583653 -104.851446 178 5887ft 7kts
03-Nov-20 21:14 39.560699 -104.849306 173 6688ft 111kts
03-Nov-20 21:15 39.527380 -104.844648 177 8008ft 148kts
03-Nov-20 21:17 39.476396 -104.840954 177 8004ft 192kts
03-Nov-20 21:18 39.421903 -104.837112 177 8001ft 195kts
03-Nov-20 21:19 39.368724 -104.844435 238 8515ft 195kts
03-Nov-20 21:20 39.393965 -104.897768 317 9707ft 190kts
03-Nov-20 21:21 39.427226 -104.950115 293 10617ft 193kts
03-Nov-20 21:22 39.450154 -105.014577 295 11724ft 199kts
03-Nov-20 21:23 39.474269 -105.079801 294 13066ft 202kts
03-Nov-20 21:24 39.499191 -105.146513 295 14243ft 207kts
03-Nov-20 21:25 39.524291 -105.215039 294 15388ft 212kts
03-Nov-20 21:26 39.549893 -105.284547 294 16690ft 215kts
03-Nov-20 21:27 39.576024 -105.355614 294 17929ft 219kts
03-Nov-20 21:28 39.601588 -105.425301 294 19004ft 222kts
03-Nov-20 21:29 39.628353 -105.498437 294 20190ft 225kts
03-Nov-20 21:30 39.657450 -105.578199 294 20387ft 257kts
03-Nov-20 21:31 39.686812 -105.665177 272 20415ft 270kts
03-Nov-20 21:32 39.669953 -105.760008 255 20438ft 275kts
03-Nov-20 21:33 39.650821 -105.856587 255 20444ft 276kts
03-Nov-20 21:34 39.631500 -105.953609 255 20447ft 276kts
03-Nov-20 21:35 39.612058 -106.050812 255 20443ft 273kts
03-Nov-20 21:35 39.596186 -106.129770 255 19394ft 271kts
03-Nov-20 21:37 39.573963 -106.239850 255 17873ft 267kts
03-Nov-20 21:37 39.558256 -106.317311 255 17094ft 264kts
03-Nov-20 21:39 39.536486 -106.424221 255 16439ft 260kts
03-Nov-20 21:39 39.520735 -106.501228 255 16008ft 267kts
03-Nov-20 21:40 39.502078 -106.592077 255 15983ft 254kts
03-Nov-20 21:41 39.484564 -106.677006 254 15980ft 228kts
03-Nov-20 21:42 39.468639 -106.753929 254 15476ft 219kts
03-Nov-20 21:43 39.453219 -106.828131 254 14287ft 217kts
03-Nov-20 21:44 39.425169 -106.889479 217 13551ft 199kts
03-Nov-20 21:45 39.378646 -106.921721 179 12861ft 195kts
03-Nov-20 21:46 39.329872 -106.913241 178 11541ft 155kts
03-Nov-20 21:47 39.291867 -106.901294 164 9264ft 131kts
03-Nov-20 21:48 39.264296 -106.888501 162 8377ft 96kts
03-Nov-20 21:49 39.239734 -106.876665 161 7816ft 96kts
03-Nov-20 21:50 39.220215 -106.867443 158 7765ft 34kts
03-Nov-20 21:51 39.221086 -106.866652 339 7758ft 17kts
03-Nov-20 21:52 39.225242 -106.868630 339 7718ft 15kts
03-Nov-20 21:53 39.226122 -106.868669 245 7710ft 0kts
03-Nov-20 21:54 39.226122 -106.868669 245 7710ft 0kts

Navigation Log

Ident Type
Flight plan parsing failed, navigation log unavailable